createdAt,value
2022-10-17T00:00:51.111Z,67.40
2022-10-17T00:03:19.074Z,69.10
2022-10-17T00:05:47.389Z,68.20
2022-10-17T00:08:15.546Z,68.30
2022-10-17T00:10:43.383Z,68.00
2022-10-17T00:13:11.298Z,68.50
2022-10-17T00:15:42.727Z,68.70
2022-10-17T00:18:10.698Z,68.40
2022-10-17T00:20:38.677Z,69.00
2022-10-17T00:23:06.578Z,68.80
2022-10-17T00:25:34.427Z,69.80
2022-10-17T00:28:02.361Z,69.20
2022-10-17T00:30:30.313Z,69.70
2022-10-17T00:32:59.613Z,69.70
2022-10-17T00:35:27.493Z,69.60
2022-10-17T00:37:55.392Z,70.10
2022-10-17T00:40:23.261Z,71.00
2022-10-17T00:42:53.213Z,70.20
2022-10-17T00:45:22.403Z,69.60
2022-10-17T00:47:51.500Z,70.40
2022-10-17T00:50:20.766Z,70.80
2022-10-17T00:52:48.648Z,70.50
2022-10-17T00:55:18.049Z,69.60
2022-10-17T00:57:46.099Z,69.90
2022-10-17T01:00:14.286Z,70.90
2022-10-17T01:02:42.230Z,70.50
2022-10-17T01:05:10.492Z,71.20
2022-10-17T01:07:39.769Z,70.70
2022-10-17T01:10:07.917Z,70.50
2022-10-17T01:12:39.430Z,70.60
2022-10-17T01:15:09.995Z,69.40
2022-10-17T01:17:40.923Z,70.20
2022-10-17T01:20:19.521Z,70.30
2022-10-17T01:22:49.039Z,70.00
2022-10-17T01:25:21.635Z,69.30
2022-10-17T01:28:07.404Z,70.00
2022-10-17T01:30:53.178Z,69.50
2022-10-17T01:33:25.067Z,69.90
2022-10-17T01:35:54.110Z,69.50
2022-10-17T01:38:22.530Z,70.50
2022-10-17T01:40:50.874Z,71.40
2022-10-17T01:43:19.968Z,72.00
2022-10-17T01:45:48.548Z,71.00
2022-10-17T01:48:17.510Z,71.00
2022-10-17T01:50:47.721Z,71.10
2022-10-17T01:53:15.963Z,70.60
2022-10-17T01:55:44.421Z,70.50
2022-10-17T01:58:13.605Z,70.70
2022-10-17T02:00:42.698Z,70.80
2022-10-17T02:03:11.003Z,70.30
2022-10-17T02:05:39.180Z,70.60
2022-10-17T02:08:08.448Z,70.30
2022-10-17T02:10:41.534Z,70.60
2022-10-17T02:13:10.873Z,70.60
2022-10-17T02:15:55.978Z,70.40
2022-10-17T02:18:29.322Z,70.40
2022-10-17T02:20:58.093Z,70.40
2022-10-17T02:23:28.850Z,70.30
2022-10-17T02:25:58.958Z,70.80
2022-10-17T02:28:28.586Z,70.30
2022-10-17T02:30:57.442Z,69.90
2022-10-17T02:33:26.262Z,70.20
2022-10-17T02:35:55.119Z,69.60
2022-10-17T02:38:23.152Z,71.30
2022-10-17T02:40:52.717Z,71.00
2022-10-17T02:43:20.581Z,70.80
2022-10-17T02:45:48.488Z,72.10
2022-10-17T02:48:16.762Z,71.40
2022-10-17T02:50:46.546Z,71.30
2022-10-17T02:53:15.318Z,71.80
2022-10-17T02:55:44.833Z,72.20
2022-10-17T02:58:14.817Z,71.90
2022-10-17T03:00:42.743Z,71.40
2022-10-17T03:03:19.550Z,71.20
2022-10-17T03:05:47.437Z,70.40
2022-10-17T03:08:15.368Z,70.90
2022-10-17T03:10:43.255Z,70.60
2022-10-17T03:13:11.136Z,71.60
2022-10-17T03:15:40.385Z,70.80
2022-10-17T03:18:08.228Z,71.90
2022-10-17T03:20:36.154Z,71.30
2022-10-17T03:23:04.061Z,71.70
2022-10-17T03:25:31.932Z,71.20
2022-10-17T03:28:00.363Z,71.00
2022-10-17T03:30:28.266Z,71.10
2022-10-17T03:32:57.558Z,72.80
2022-10-17T03:35:25.424Z,73.10
2022-10-17T03:37:53.304Z,71.80
2022-10-17T03:40:21.230Z,70.60
2022-10-17T03:42:49.237Z,70.50
2022-10-17T03:45:17.265Z,71.30
2022-10-17T03:47:45.245Z,73.10
2022-10-17T03:50:14.534Z,72.50
2022-10-17T03:52:42.457Z,71.00
2022-10-17T03:55:10.584Z,71.70
2022-10-17T03:57:41.096Z,71.30
2022-10-17T04:00:11.866Z,70.80
2022-10-17T04:02:39.775Z,72.10
2022-10-17T04:05:08.376Z,71.20
2022-10-17T04:07:38.189Z,71.70
2022-10-17T04:10:06.533Z,71.40
2022-10-17T04:12:34.463Z,71.50
2022-10-17T04:15:02.874Z,71.40
2022-10-17T04:17:35.785Z,71.40
2022-10-17T04:20:06.343Z,72.20
2022-10-17T04:22:34.211Z,72.70
2022-10-17T04:25:03.521Z,72.60
2022-10-17T04:27:31.355Z,73.20
2022-10-17T04:29:59.367Z,73.60
2022-10-17T04:32:27.407Z,72.50
2022-10-17T04:34:55.548Z,71.90
2022-10-17T04:37:23.576Z,71.40
2022-10-17T04:39:51.506Z,70.90
2022-10-17T04:42:20.880Z,70.90
2022-10-17T04:44:48.789Z,71.70
2022-10-17T04:47:16.665Z,73.10
2022-10-17T04:49:44.804Z,73.10
2022-10-17T04:52:12.758Z,72.10
2022-10-17T04:54:40.615Z,71.70
2022-10-17T04:57:08.475Z,71.20
2022-10-17T04:59:37.687Z,70.90
2022-10-17T05:02:05.581Z,70.80
2022-10-17T05:04:33.500Z,71.00
2022-10-17T05:07:01.414Z,71.40
2022-10-17T05:09:29.428Z,71.10
2022-10-17T05:11:57.348Z,70.60
2022-10-17T05:14:25.313Z,70.10
2022-10-17T05:16:54.815Z,70.60
2022-10-17T05:19:22.671Z,71.40
2022-10-17T05:21:50.561Z,71.20
2022-10-17T05:24:18.545Z,70.80
2022-10-17T05:26:46.440Z,70.00
2022-10-17T05:29:14.405Z,70.00
2022-10-17T05:31:42.394Z,69.30
2022-10-17T05:34:13.933Z,69.70
2022-10-17T05:36:42.041Z,70.40
2022-10-17T05:39:10.018Z,70.80
2022-10-17T05:41:37.926Z,70.70
2022-10-17T05:44:06.019Z,70.70
2022-10-17T05:46:34.293Z,70.40
2022-10-17T05:49:03.587Z,70.50
2022-10-17T05:51:37.167Z,70.40
2022-10-17T05:54:06.423Z,70.40
2022-10-17T05:56:34.383Z,71.40
2022-10-17T05:59:02.270Z,71.10
2022-10-17T06:01:30.471Z,71.10
2022-10-17T06:03:58.410Z,70.80
2022-10-17T06:06:26.649Z,70.10
2022-10-17T06:08:56.069Z,70.60
2022-10-17T06:11:24.049Z,70.60
2022-10-17T06:13:52.209Z,70.70
2022-10-17T06:16:20.117Z,71.20
2022-10-17T06:21:18.012Z,71.10
2022-10-17T06:23:45.884Z,72.30
2022-10-17T06:26:15.243Z,72.00
2022-10-17T06:28:43.407Z,71.60
2022-10-17T06:31:11.938Z,71.00
2022-10-17T06:33:39.914Z,71.10
2022-10-17T06:36:08.453Z,71.20
2022-10-17T06:38:36.571Z,71.20
2022-10-17T06:41:07.948Z,71.10
2022-10-17T06:43:37.704Z,70.80
2022-10-17T06:46:05.720Z,70.30
2022-10-17T06:48:33.831Z,69.10
2022-10-17T06:51:01.867Z,59.60
2022-10-17T06:53:29.859Z,55.70
2022-10-17T06:56:01.423Z,53.80
2022-10-17T06:58:29.544Z,50.20
2022-10-17T07:01:01.516Z,50.10
2022-10-17T07:03:29.738Z,49.90
2022-10-17T07:05:58.044Z,45.80
2022-10-17T07:08:26.329Z,43.70
2022-10-17T07:10:54.893Z,46.50
2022-10-17T07:13:23.082Z,50.40
2022-10-17T07:15:51.253Z,46.20
2022-10-17T07:18:21.059Z,42.40
2022-10-17T07:20:54.168Z,45.90
2022-10-17T07:23:22.359Z,46.90
2022-10-17T07:25:50.522Z,45.30
2022-10-17T07:28:18.769Z,43.70
2022-10-17T07:30:50.633Z,45.50
2022-10-17T07:33:23.151Z,45.50
2022-10-17T07:35:52.924Z,43.90
2022-10-17T07:38:21.114Z,43.60
2022-10-17T07:40:54.889Z,42.40
2022-10-17T07:43:22.917Z,40.20
2022-10-17T07:45:51.119Z,40.30
2022-10-17T07:48:19.282Z,40.40
2022-10-17T07:50:48.642Z,42.90
2022-10-17T07:53:16.513Z,41.30
2022-10-17T07:55:44.951Z,38.70
2022-10-17T07:58:12.967Z,39.90
2022-10-17T08:00:41.194Z,40.60
2022-10-17T08:03:11.124Z,41.30
2022-10-17T08:05:39.531Z,39.20
2022-10-17T08:08:09.648Z,40.00
2022-10-17T08:10:37.959Z,42.60
2022-10-17T08:13:05.806Z,42.60
2022-10-17T08:15:33.974Z,44.40
2022-10-17T08:18:02.104Z,42.90
2022-10-17T08:20:30.006Z,43.70
2022-10-17T08:22:57.931Z,42.30
2022-10-17T08:25:27.322Z,44.70
2022-10-17T08:27:57.144Z,46.50
2022-10-17T08:30:25.135Z,45.70
2022-10-17T08:32:53.109Z,46.00
2022-10-17T08:35:22.181Z,47.30
2022-10-17T08:37:50.047Z,46.70
2022-10-17T08:40:19.393Z,47.10
2022-10-17T08:42:52.336Z,48.10
2022-10-17T08:45:21.933Z,45.80
2022-10-17T08:47:50.729Z,48.00
2022-10-17T08:50:19.843Z,47.10
2022-10-17T08:52:48.762Z,47.90
2022-10-17T08:55:17.099Z,47.00
2022-10-17T08:57:45.057Z,48.20
2022-10-17T09:00:16.481Z,46.40
2022-10-17T09:02:46.769Z,46.80
2022-10-17T09:05:23.913Z,48.20
2022-10-17T09:07:55.315Z,50.50
2022-10-17T09:10:26.756Z,47.40
2022-10-17T09:12:56.039Z,48.20
2022-10-17T09:15:38.219Z,47.10
2022-10-17T09:18:09.235Z,47.10
2022-10-17T09:20:38.339Z,49.40
2022-10-17T09:23:07.541Z,48.30
2022-10-17T09:25:37.008Z,47.00
2022-10-17T09:28:05.705Z,44.20
2022-10-17T09:30:45.021Z,47.30
2022-10-17T09:33:23.380Z,46.80
2022-10-17T09:36:02.131Z,45.80
2022-10-17T09:38:31.097Z,45.20
2022-10-17T09:41:00.252Z,46.30
2022-10-17T09:43:28.309Z,47.70
2022-10-17T09:46:00.017Z,48.10
2022-10-17T09:48:28.613Z,47.50
2022-10-17T09:51:08.275Z,46.10
2022-10-17T09:53:45.539Z,46.90
2022-10-17T09:56:14.351Z,45.50
2022-10-17T09:58:42.765Z,47.60
2022-10-17T10:01:22.738Z,45.50
2022-10-17T10:04:06.995Z,46.90
2022-10-17T10:06:34.918Z,47.10
2022-10-17T10:09:05.039Z,46.50
2022-10-17T10:11:46.308Z,46.20
2022-10-17T10:14:14.493Z,46.70
2022-10-17T10:16:44.268Z,46.40
2022-10-17T10:19:16.798Z,45.70
2022-10-17T10:21:47.366Z,47.20
2022-10-17T10:24:15.262Z,45.30
2022-10-17T10:26:43.991Z,44.50
2022-10-17T10:29:20.646Z,45.50
2022-10-17T10:31:49.879Z,44.60
2022-10-17T10:34:19.754Z,44.30
2022-10-17T10:36:56.000Z,44.60
2022-10-17T10:39:28.250Z,46.00
2022-10-17T10:41:56.135Z,45.90
2022-10-17T10:44:25.119Z,45.90
2022-10-17T10:47:07.984Z,44.00
2022-10-17T10:49:37.753Z,44.80
2022-10-17T10:52:05.713Z,44.20
2022-10-17T10:54:33.876Z,45.60
2022-10-17T10:57:03.351Z,43.90
2022-10-17T10:59:31.840Z,44.60
2022-10-17T11:02:02.176Z,43.10
2022-10-17T11:04:31.388Z,42.20
2022-10-17T11:07:02.196Z,42.90
2022-10-17T11:09:33.948Z,43.00
2022-10-17T11:12:03.999Z,41.70
2022-10-17T11:14:35.552Z,43.40
2022-10-17T11:17:04.552Z,42.30
2022-10-17T11:19:33.245Z,42.50
2022-10-17T11:22:06.471Z,43.90
2022-10-17T11:24:35.591Z,43.70
2022-10-17T11:27:04.269Z,43.10
2022-10-17T11:29:32.729Z,42.70
2022-10-17T11:32:01.649Z,43.70
2022-10-17T11:34:30.768Z,42.70
2022-10-17T11:36:59.564Z,42.20
2022-10-17T11:39:30.565Z,43.70
2022-10-17T11:42:03.292Z,42.60
2022-10-17T11:44:33.126Z,41.80
2022-10-17T11:47:01.470Z,42.30
2022-10-17T11:49:29.773Z,43.00
2022-10-17T11:52:00.624Z,42.20
2022-10-17T11:54:31.881Z,42.20
2022-10-17T11:57:04.170Z,42.20
2022-10-17T11:59:42.269Z,42.90
2022-10-17T12:02:10.655Z,43.30
2022-10-17T12:04:44.839Z,43.90
2022-10-17T12:07:18.788Z,42.70
2022-10-17T12:09:48.978Z,42.00
2022-10-17T12:12:24.902Z,42.90
2022-10-17T12:14:52.845Z,42.60
2022-10-17T12:17:24.921Z,43.70
2022-10-17T12:19:52.818Z,42.60
2022-10-17T12:22:26.006Z,42.70
2022-10-17T12:24:56.929Z,42.80
2022-10-17T12:27:36.093Z,42.40
2022-10-17T12:30:05.257Z,42.30
2022-10-17T12:32:46.908Z,42.70
2022-10-17T12:35:21.846Z,43.50
2022-10-17T12:38:04.561Z,43.10
2022-10-17T12:40:53.242Z,43.80
2022-10-17T12:43:48.331Z,43.00
2022-10-17T12:46:34.214Z,43.20
2022-10-17T12:49:05.608Z,43.80
2022-10-17T12:51:48.841Z,42.20
2022-10-17T12:54:16.739Z,43.70
2022-10-17T12:56:46.667Z,43.90
2022-10-17T12:59:16.102Z,43.50
2022-10-17T13:01:45.003Z,42.10
2022-10-17T13:04:12.943Z,41.80
2022-10-17T13:06:41.513Z,43.80
2022-10-17T13:09:10.971Z,43.90
2022-10-17T13:11:38.912Z,42.80
2022-10-17T13:14:12.667Z,44.00
2022-10-17T13:16:41.214Z,43.90
2022-10-17T13:19:13.851Z,43.60
2022-10-17T13:21:50.309Z,44.30
2022-10-17T13:24:22.034Z,44.30
2022-10-17T13:26:49.917Z,43.90
2022-10-17T13:29:20.380Z,43.80
2022-10-17T13:31:52.059Z,44.30
2022-10-17T13:34:20.496Z,43.50
2022-10-17T13:36:49.037Z,44.10
2022-10-17T13:39:19.641Z,44.80
2022-10-17T13:41:47.714Z,44.00
2022-10-17T13:44:19.188Z,43.30
2022-10-17T13:46:48.414Z,44.20
2022-10-17T13:49:23.196Z,44.10
2022-10-17T13:51:54.112Z,43.90
2022-10-17T13:54:34.909Z,43.60
2022-10-17T13:57:02.951Z,44.90
2022-10-17T13:59:31.781Z,44.00
2022-10-17T14:02:01.688Z,45.20
2022-10-17T14:04:40.050Z,44.60
2022-10-17T14:07:22.878Z,45.00
2022-10-17T14:09:50.762Z,45.40
2022-10-17T14:12:18.635Z,44.80
2022-10-17T14:15:09.371Z,44.00
2022-10-17T14:17:38.561Z,44.20
2022-10-17T14:20:40.843Z,45.40
2022-10-17T14:23:21.070Z,44.90
2022-10-17T14:25:43.795Z,45.80
2022-10-17T14:28:15.657Z,44.90
2022-10-17T14:30:59.102Z,45.10
2022-10-17T14:33:28.908Z,45.90
2022-10-17T14:35:57.160Z,45.50
2022-10-17T14:38:25.230Z,46.70
2022-10-17T14:41:00.383Z,45.60
2022-10-17T14:43:37.668Z,45.60
2022-10-17T14:46:05.642Z,46.30
2022-10-17T14:48:34.865Z,45.60
2022-10-17T14:51:09.125Z,46.50
2022-10-17T14:53:37.013Z,47.60
2022-10-17T14:56:06.176Z,46.10
2022-10-17T14:58:34.571Z,47.30
2022-10-17T15:01:02.841Z,48.30
2022-10-17T15:03:31.312Z,47.00
2022-10-17T15:06:10.340Z,46.30
2022-10-17T15:08:38.424Z,47.50
2022-10-17T15:11:07.144Z,47.10
2022-10-17T15:13:41.096Z,47.50
2022-10-17T15:16:14.873Z,46.60
2022-10-17T15:18:43.008Z,49.70
2022-10-17T15:21:33.310Z,49.60
2022-10-17T15:24:04.408Z,48.70
2022-10-17T15:26:32.842Z,47.30
2022-10-17T15:29:02.689Z,48.60
2022-10-17T15:31:31.377Z,47.60
2022-10-17T15:33:59.598Z,48.40
2022-10-17T15:36:29.205Z,48.00
2022-10-17T15:38:57.559Z,50.80
2022-10-17T15:41:25.748Z,51.10
2022-10-17T15:43:53.637Z,50.30
2022-10-17T15:46:22.825Z,52.00
2022-10-17T15:48:54.466Z,53.20
2022-10-17T15:51:24.863Z,51.30
2022-10-17T15:53:54.197Z,52.60
2022-10-17T15:56:23.030Z,51.80
2022-10-17T15:58:57.802Z,50.30
2022-10-17T16:01:27.640Z,50.20
2022-10-17T16:04:00.235Z,50.70
2022-10-17T16:06:28.484Z,51.30
2022-10-17T16:08:57.813Z,53.50
2022-10-17T16:11:28.298Z,54.20
2022-10-17T16:13:57.212Z,54.30
2022-10-17T16:16:25.143Z,54.20
2022-10-17T16:18:53.036Z,55.00
2022-10-17T16:21:21.092Z,55.50
2022-10-17T16:23:49.065Z,57.10
2022-10-17T16:26:18.413Z,57.60
2022-10-17T16:28:46.552Z,57.80
2022-10-17T16:31:23.951Z,57.70
2022-10-17T16:33:52.259Z,58.10
2022-10-17T16:36:20.223Z,57.30
2022-10-17T16:38:48.142Z,57.90
2022-10-17T16:41:20.512Z,58.20
2022-10-17T16:43:48.576Z,58.90
2022-10-17T16:46:16.442Z,60.20
2022-10-17T16:48:44.366Z,58.80
2022-10-17T16:51:12.289Z,59.70
2022-10-17T16:53:43.638Z,60.10
2022-10-17T16:56:11.968Z,60.10
2022-10-17T16:58:41.448Z,61.90
2022-10-17T17:01:09.827Z,61.30
2022-10-17T17:03:38.061Z,62.80
2022-10-17T17:06:06.617Z,63.60
2022-10-17T17:08:34.644Z,63.40
2022-10-17T17:11:02.501Z,62.30
2022-10-17T17:13:31.274Z,62.10
2022-10-17T17:16:07.753Z,62.50
2022-10-17T17:18:35.869Z,62.60
2022-10-17T17:21:04.908Z,62.60
2022-10-17T17:23:37.984Z,62.70
2022-10-17T17:26:37.986Z,62.50
2022-10-17T17:29:23.679Z,63.50
2022-10-17T17:32:08.248Z,62.90
2022-10-17T17:34:43.532Z,64.30
2022-10-17T17:37:25.558Z,63.30
2022-10-17T17:40:06.243Z,63.90
2022-10-17T17:45:25.826Z,63.20
2022-10-17T17:50:58.869Z,63.70
2022-10-17T17:53:27.307Z,64.50
2022-10-17T17:56:08.853Z,64.20
2022-10-17T17:58:37.497Z,63.80
2022-10-17T18:01:20.533Z,64.80
2022-10-17T18:04:00.925Z,64.80
2022-10-17T18:06:34.488Z,65.10
2022-10-17T18:09:16.890Z,65.00
2022-10-17T18:11:44.845Z,65.40
2022-10-17T18:14:12.838Z,64.80
2022-10-17T18:16:40.712Z,65.20
2022-10-17T18:19:10.061Z,64.90
2022-10-17T18:21:38.093Z,64.70
2022-10-17T18:24:06.388Z,64.70
2022-10-17T18:26:34.268Z,64.20
2022-10-17T18:29:02.167Z,66.50
2022-10-17T18:31:35.659Z,65.20
2022-10-17T18:34:04.297Z,66.90
2022-10-17T18:36:33.810Z,66.50
2022-10-17T18:39:01.927Z,66.30
2022-10-17T18:41:29.807Z,66.20
2022-10-17T18:43:57.772Z,66.20
2022-10-17T18:46:28.241Z,66.50
2022-10-17T18:48:56.222Z,66.30
2022-10-17T18:51:24.580Z,65.70
2022-10-17T18:53:54.164Z,65.50
2022-10-17T18:56:22.093Z,66.00
2022-10-17T18:58:49.979Z,66.40
2022-10-17T19:01:18.686Z,65.40
2022-10-17T19:03:47.094Z,65.90
2022-10-17T19:06:15.660Z,66.60
2022-10-17T19:08:43.733Z,66.10
2022-10-17T19:11:14.000Z,66.30
2022-10-17T19:13:41.994Z,67.00
2022-10-17T19:16:10.313Z,66.20
2022-10-17T19:18:38.380Z,65.50
2022-10-17T19:21:06.749Z,65.50
2022-10-17T19:23:35.890Z,66.70
2022-10-17T19:26:03.912Z,66.60
2022-10-17T19:28:33.198Z,67.10
2022-10-17T19:31:01.134Z,66.40
2022-10-17T19:36:02.165Z,67.00
2022-10-17T19:38:30.077Z,66.80
2022-10-17T19:40:57.916Z,66.90
2022-10-17T19:43:25.858Z,66.70
2022-10-17T19:45:58.661Z,68.20
2022-10-17T19:48:26.762Z,68.00
2022-10-17T19:50:54.616Z,67.40
2022-10-17T19:53:23.445Z,67.00
2022-10-17T19:55:51.410Z,67.90
2022-10-17T19:58:19.286Z,67.80
2022-10-17T20:00:47.615Z,66.90
2022-10-17T20:03:16.906Z,67.70
2022-10-17T20:05:44.753Z,66.80
2022-10-17T20:08:12.844Z,67.10
2022-10-17T20:10:40.749Z,66.50
2022-10-17T20:13:08.723Z,66.50
2022-10-17T20:15:36.943Z,66.10
2022-10-17T20:18:04.823Z,67.10
2022-10-17T20:20:34.089Z,67.10
2022-10-17T20:23:01.928Z,68.90
2022-10-17T20:25:29.830Z,68.60
2022-10-17T20:27:57.709Z,67.70
2022-10-17T20:30:25.690Z,67.10
2022-10-17T20:32:56.471Z,68.20
2022-10-17T20:35:30.227Z,67.80
2022-10-17T20:38:00.063Z,67.20
2022-10-17T20:40:35.001Z,67.60
2022-10-17T20:43:03.661Z,67.70
2022-10-17T20:45:43.915Z,68.50
2022-10-17T20:48:19.301Z,68.80
2022-10-17T20:50:47.306Z,69.00
2022-10-17T20:53:36.710Z,69.60
2022-10-17T20:56:04.582Z,69.30
2022-10-17T20:58:32.488Z,68.90
2022-10-17T21:01:00.343Z,68.60
2022-10-17T21:03:28.214Z,68.90
2022-10-17T21:05:56.053Z,68.30
2022-10-17T21:08:25.346Z,68.10
2022-10-17T21:10:53.215Z,68.00
2022-10-17T21:13:21.200Z,67.80
2022-10-17T21:15:49.052Z,67.40
2022-10-17T21:18:16.942Z,67.30
2022-10-17T21:20:44.819Z,68.40
2022-10-17T21:23:12.806Z,68.10
2022-10-17T21:25:42.046Z,68.60
2022-10-17T21:28:09.916Z,68.30
2022-10-17T21:30:37.773Z,68.60
2022-10-17T21:33:05.710Z,68.90
2022-10-17T21:35:33.569Z,69.00
2022-10-17T21:38:01.410Z,68.60
2022-10-17T21:40:29.296Z,69.30
2022-10-17T21:42:58.495Z,69.20
2022-10-17T21:45:26.348Z,69.10
2022-10-17T21:48:12.139Z,70.50
2022-10-17T21:50:41.211Z,69.40
2022-10-17T21:53:09.082Z,69.20
2022-10-17T21:55:37.036Z,69.00
2022-10-17T21:58:06.316Z,68.80
2022-10-17T22:00:34.163Z,68.40
2022-10-17T22:03:02.089Z,68.10
2022-10-17T22:05:30.337Z,68.00
2022-10-17T22:07:58.239Z,69.00
2022-10-17T22:10:26.092Z,69.40
2022-10-17T22:12:53.930Z,68.50
2022-10-17T22:15:23.201Z,69.00
2022-10-17T22:17:51.079Z,68.80
2022-10-17T22:20:18.950Z,69.00
2022-10-17T22:22:46.877Z,69.10
2022-10-17T22:25:14.771Z,69.20
2022-10-17T22:27:42.634Z,68.40
2022-10-17T22:30:11.118Z,68.80
2022-10-17T22:32:40.325Z,68.10
2022-10-17T22:35:08.884Z,68.60
2022-10-17T22:37:36.735Z,68.90
2022-10-17T22:40:04.932Z,68.20
2022-10-17T22:42:34.729Z,68.10
2022-10-17T22:45:03.265Z,68.80
2022-10-17T22:47:31.800Z,69.70
2022-10-17T22:50:01.372Z,70.60
2022-10-17T22:52:29.530Z,70.80
2022-10-17T22:54:57.797Z,72.10
2022-10-17T22:57:25.707Z,71.80
2022-10-17T22:59:53.590Z,71.70
2022-10-17T23:02:21.457Z,71.50
2022-10-17T23:04:49.488Z,71.40
2022-10-17T23:07:18.704Z,70.40
2022-10-17T23:09:46.598Z,68.70
2022-10-17T23:12:14.463Z,68.20
2022-10-17T23:14:43.554Z,69.10
2022-10-17T23:17:11.373Z,68.50
2022-10-17T23:19:39.266Z,68.40
2022-10-17T23:22:07.399Z,68.30
2022-10-17T23:24:36.719Z,68.40
2022-10-17T23:27:04.685Z,68.80
2022-10-17T23:29:32.648Z,67.90
2022-10-17T23:32:00.499Z,68.20
2022-10-17T23:34:29.130Z,67.40
2022-10-17T23:36:57.432Z,68.00
2022-10-17T23:39:25.296Z,68.40
2022-10-17T23:41:54.512Z,68.20
2022-10-17T23:44:23.538Z,68.20
2022-10-17T23:46:51.383Z,69.50
2022-10-17T23:49:19.251Z,69.60
2022-10-17T23:51:47.147Z,69.70
2022-10-17T23:54:15.024Z,68.60
2022-10-17T23:56:43.253Z,71.50
2022-10-17T23:59:12.512Z,72.50
